Time;durP1;ratioP1;P1;durP2;ratioP2;P2;SDS_P1;SDS_P2;PMS_P1;PMS_P2;Temp;Humidity;BMP_temperature;BMP_pressure;BME280_temperature;BME280_humidity;BME280_pressure;Samples;Min_cycle;Max_cycle;Signal;HPM_P1;HPM_P2
2021/07/14 00:01:45;;;;;;;17.83;11.82;;;22.30;99.90;;;;;;5047599;28;20032;-72
2021/07/14 00:04:11;;;;;;;17.35;12.30;;;22.20;99.90;;;;;;5052473;28;20028;-72
2021/07/14 00:06:37;;;;;;;16.15;12.45;;;22.20;99.90;;;;;;5048190;28;20051;-73
2021/07/14 00:09:08;;;;;;;17.58;12.27;;;22.20;99.90;;;;;;5045435;28;20027;-72
2021/07/14 00:11:39;;;;;;;;;;;22.20;99.90;;;;;;5036502;28;20503;-72
2021/07/14 00:22:20;;;;;;;17.67;13.00;;;22.00;99.90;;;;;;5047093;28;20040;-72
2021/07/14 00:24:46;;;;;;;18.67;11.57;;;22.00;99.90;;;;;;5045571;28;20029;-72
2021/07/14 00:27:12;;;;;;;17.65;12.90;;;22.00;99.90;;;;;;5046011;28;20025;-72
2021/07/14 00:29:48;;;;;;;20.30;12.80;;;22.00;99.90;;;;;;5054242;28;20063;-72
2021/07/14 00:32:14;;;;;;;17.48;12.13;;;21.90;99.90;;;;;;5047649;28;20040;-72
2021/07/14 00:34:40;;;;;;;16.70;12.30;;;21.90;99.90;;;;;;5047941;28;20068;-72
2021/07/14 00:37:05;;;;;;;16.38;12.15;;;21.80;99.90;;;;;;5044263;28;20476;-71
2021/07/14 00:39:31;;;;;;;17.33;12.50;;;21.80;99.90;;;;;;5043996;28;20026;-71
2021/07/14 00:41:56;;;;;;;15.40;11.90;;;21.80;99.90;;;;;;5047449;28;20024;-71
2021/07/14 00:44:22;;;;;;;20.48;12.18;;;21.80;99.90;;;;;;5046217;28;20017;-71
2021/07/14 00:46:48;;;;;;;18.58;13.07;;;21.80;99.90;;;;;;5041594;28;20357;-71
2021/07/14 00:49:20;;;;;;;17.58;12.52;;;21.70;99.90;;;;;;5038355;28;20244;-72
2021/07/14 00:51:46;;;;;;;19.00;12.60;;;21.70;99.90;;;;;;5042126;28;20021;-71
2021/07/14 00:54:12;;;;;;;16.85;11.82;;;21.70;99.90;;;;;;5035345;28;20025;-71
2021/07/14 00:56:39;;;;;;;17.50;12.30;;;21.70;99.90;;;;;;5050832;28;20125;-71
2021/07/14 00:59:05;;;;;;;16.00;11.98;;;21.60;99.90;;;;;;5048759;28;20029;-71
2021/07/14 01:01:31;;;;;;;15.32;12.23;;;21.60;99.90;;;;;;5038717;28;20422;-71
2021/07/14 01:04:05;;;;;;;15.75;12.73;;;21.60;99.90;;;;;;5038459;28;20025;-71
2021/07/14 01:07:02;;;;;;;17.40;12.82;;;21.60;99.90;;;;;;5048011;28;20074;-72
2021/07/14 01:09:38;;;;;;;15.82;12.27;;;21.60;99.90;;;;;;5049193;28;20033;-72
2021/07/14 01:12:26;;;;;;;23.75;12.30;;;21.50;99.90;;;;;;5048337;28;20082;-71
2021/07/14 01:15:08;;;;;;;16.73;12.07;;;21.50;99.90;;;;;;5046431;28;20072;-72
2021/07/14 01:17:38;;;;;;;14.85;11.48;;;21.50;99.90;;;;;;5046731;28;20029;-72
2021/07/14 01:20:26;;;;;;;15.77;12.25;;;21.50;99.90;;;;;;5050148;28;20020;-72
2021/07/14 01:23:11;;;;;;;17.70;12.57;;;21.40;99.90;;;;;;5051384;28;20024;-72
2021/07/14 01:25:52;;;;;;;18.52;11.75;;;21.40;99.90;;;;;;5047643;28;20025;-72
2021/07/14 01:28:20;;;;;;;15.27;11.82;;;21.30;99.90;;;;;;5045647;28;20025;-71
2021/07/14 01:30:51;;;;;;;16.13;12.40;;;21.30;99.90;;;;;;5048990;28;20036;-71
2021/07/14 01:33:26;;;;;;;19.00;12.45;;;21.30;99.90;;;;;;5048361;28;20025;-71
2021/07/14 01:35:54;;;;;;;19.20;12.32;;;21.20;99.90;;;;;;5048931;28;20075;-71
2021/07/14 01:38:23;;;;;;;20.23;12.27;;;21.20;99.90;;;;;;5049467;28;20025;-71
2021/07/14 01:40:49;;;;;;;15.18;12.32;;;21.20;99.90;;;;;;5045856;28;20104;-72
2021/07/14 01:43:14;;;;;;;16.23;12.15;;;21.20;99.90;;;;;;5042220;28;20113;-71
2021/07/14 01:45:42;;;;;;;16.15;12.18;;;21.10;99.90;;;;;;5049236;28;20033;-71
2021/07/14 01:48:10;;;;;;;17.30;11.88;;;21.10;99.90;;;;;;5048774;28;20067;-71
2021/07/14 01:50:36;;;;;;;23.88;12.25;;;21.10;99.90;;;;;;5044423;28;20083;-71
2021/07/14 01:53:03;;;;;;;16.95;12.60;;;21.10;99.90;;;;;;5048016;28;20025;-71
2021/07/14 01:55:32;;;;;;;18.65;11.40;;;21.10;99.90;;;;;;5043319;28;20029;-71
2021/07/14 01:57:59;;;;;;;14.35;11.48;;;21.00;99.90;;;;;;5039982;28;20025;-72
2021/07/14 02:00:27;;;;;;;16.67;12.60;;;21.00;99.90;;;;;;5047809;28;20025;-71
2021/07/14 02:05:41;;;;;;;18.48;12.88;;;20.90;99.90;;;;;;5046312;28;20113;-72
2021/07/14 02:08:08;;;;;;;15.90;12.20;;;20.90;99.90;;;;;;5050694;28;20094;-72
2021/07/14 02:10:36;;;;;;;15.95;12.63;;;20.80;99.90;;;;;;5042894;28;20021;-72
2021/07/14 02:13:02;;;;;;;17.17;12.57;;;20.80;99.90;;;;;;5047578;28;20499;-72
2021/07/14 02:15:31;;;;;;;18.38;12.77;;;20.80;99.90;;;;;;5046640;28;20053;-72
2021/07/14 02:18:02;;;;;;;14.63;12.15;;;20.70;99.90;;;;;;5046699;28;20142;-71
2021/07/14 02:20:27;;;;;;;18.05;12.75;;;20.70;99.90;;;;;;5046187;28;20021;-71
2021/07/14 02:22:53;;;;;;;19.33;11.88;;;20.70;99.90;;;;;;5050592;28;20025;-72
2021/07/14 02:25:20;;;;;;;16.52;12.10;;;20.70;99.90;;;;;;5049962;28;20472;-72
2021/07/14 02:27:47;;;;;;;16.08;12.18;;;20.60;99.90;;;;;;5048799;28;20037;-72
2021/07/14 02:30:19;;;;;;;16.60;11.93;;;20.60;99.90;;;;;;5049611;28;20036;-72
2021/07/14 02:32:50;;;;;;;16.67;11.98;;;20.60;99.90;;;;;;5048104;28;20087;-72
2021/07/14 02:35:17;;;;;;;15.70;12.15;;;20.50;99.90;;;;;;5046948;28;20035;-72
2021/07/14 02:38:09;;;;;;;16.88;12.65;;;20.50;99.90;;;;;;5049360;28;20109;-72
2021/07/14 02:40:40;;;;;;;14.93;12.15;;;20.50;99.90;;;;;;5047537;28;20475;-71
2021/07/14 02:43:06;;;;;;;18.05;13.15;;;20.50;99.90;;;;;;5045982;28;20035;-72
2021/07/14 02:45:36;;;;;;;14.40;11.30;;;20.50;99.90;;;;;;5046996;28;20029;-72
2021/07/14 02:48:03;;;;;;;17.58;11.20;;;20.40;99.90;;;;;;5044495;28;20104;-72
2021/07/14 02:50:34;;;;;;;15.48;11.32;;;20.50;99.90;;;;;;5050793;28;20048;-72
2021/07/14 02:53:09;;;;;;;17.90;12.65;;;20.40;99.90;;;;;;5042380;28;20040;-73
2021/07/14 02:55:36;;;;;;;15.23;12.13;;;20.40;99.90;;;;;;5048088;28;20044;-72
2021/07/14 02:58:03;;;;;;;17.52;12.25;;;20.40;99.90;;;;;;5048989;28;20719;-72
2021/07/14 03:00:30;;;;;;;18.50;12.48;;;20.40;99.90;;;;;;5042989;28;20032;-72
2021/07/14 03:02:58;;;;;;;21.35;12.65;;;20.30;99.90;;;;;;5045389;28;20483;-71
2021/07/14 03:05:25;;;;;;;16.73;12.25;;;20.30;99.90;;;;;;5048404;28;20539;-72
2021/07/14 03:07:52;;;;;;;19.48;12.18;;;20.30;99.90;;;;;;5043476;28;20039;-72
2021/07/14 03:10:19;;;;;;;16.60;11.68;;;20.30;99.90;;;;;;5047930;28;20043;-72
2021/07/14 03:12:47;;;;;;;17.90;11.75;;;20.20;99.90;;;;;;5040311;28;20029;-72
2021/07/14 03:15:13;;;;;;;15.52;12.45;;;20.20;99.90;;;;;;5038412;28;20059;-72
2021/07/14 03:17:40;;;;;;;18.90;13.15;;;20.20;99.90;;;;;;5038765;28;20022;-72
2021/07/14 03:20:11;;;;;;;18.10;13.27;;;20.20;99.90;;;;;;5040079;28;20033;-72
2021/07/14 03:22:41;;;;;;;15.55;11.85;;;20.20;99.90;;;;;;5048109;28;20029;-71
2021/07/14 03:25:07;;;;;;;16.52;12.05;;;20.20;99.90;;;;;;5044783;28;20029;-72
2021/07/14 03:27:32;;;;;;;19.55;12.43;;;20.20;99.90;;;;;;5041194;28;20120;-72
2021/07/14 03:29:59;;;;;;;20.27;13.30;;;20.20;99.90;;;;;;5048089;28;20468;-72
2021/07/14 03:32:25;;;;;;;18.45;12.90;;;20.20;99.90;;;;;;5042852;28;20129;-72
2021/07/14 03:34:52;;;;;;;18.42;13.15;;;20.20;99.90;;;;;;5048322;28;20111;-72
2021/07/14 03:37:22;;;;;;;20.23;13.27;;;20.20;99.90;;;;;;5045553;28;20025;-72
2021/07/14 03:39:48;;;;;;;19.20;12.93;;;20.20;99.90;;;;;;5047437;28;20048;-71
2021/07/14 03:42:16;;;;;;;23.67;12.73;;;20.20;99.90;;;;;;5046917;28;20027;-71
2021/07/14 03:44:44;;;;;;;17.27;12.18;;;20.30;99.90;;;;;;5043525;28;20029;-71
2021/07/14 03:47:11;;;;;;;17.83;12.68;;;20.30;99.90;;;;;;5046389;28;20037;-72
2021/07/14 03:49:38;;;;;;;19.80;13.05;;;20.30;99.90;;;;;;5036890;28;20041;-71
2021/07/14 03:52:04;;;;;;;20.17;13.07;;;20.30;99.90;;;;;;5047044;28;20407;-73
2021/07/14 03:54:31;;;;;;;19.95;12.57;;;20.30;99.90;;;;;;5041268;28;20495;-71
2021/07/14 03:56:58;;;;;;;17.65;11.75;;;20.40;99.90;;;;;;5046325;28;20028;-71
2021/07/14 03:59:25;;;;;;;17.55;11.32;;;20.40;99.90;;;;;;5047865;28;20120;-71
2021/07/14 04:01:52;;;;;;;22.38;12.88;;;20.40;99.90;;;;;;5045011;28;20214;-71
2021/07/14 04:04:18;;;;;;;23.05;10.63;;;20.40;99.90;;;;;;5046867;28;20029;-71
2021/07/14 04:06:48;;;;;;;17.42;11.27;;;20.50;99.90;;;;;;5035794;28;20380;-73
2021/07/14 04:09:16;;;;;;;18.30;11.60;;;20.50;99.90;;;;;;5039026;28;20029;-73
2021/07/14 04:11:46;;;;;;;18.15;10.43;;;20.50;99.90;;;;;;5042835;28;20070;-74
2021/07/14 04:14:12;;;;;;;19.80;10.00;;;20.40;99.90;;;;;;5045596;28;20383;-73
2021/07/14 04:16:37;;;;;;;18.30;10.10;;;20.50;99.90;;;;;;5046200;28;20048;-73
2021/07/14 04:19:03;;;;;;;16.13;9.90;;;20.50;99.90;;;;;;5041231;28;20052;-74
2021/07/14 04:21:29;;;;;;;19.67;9.25;;;20.50;99.90;;;;;;5038321;28;20029;-71
2021/07/14 04:23:55;;;;;;;15.70;9.35;;;20.50;99.90;;;;;;5048650;28;20024;-71
2021/07/14 04:26:21;;;;;;;16.70;9.55;;;20.50;99.90;;;;;;5039826;28;20053;-72
2021/07/14 04:28:47;;;;;;;15.38;8.63;;;20.50;99.90;;;;;;5044350;28;20115;-71
2021/07/14 04:31:12;;;;;;;16.13;8.60;;;20.50;99.90;;;;;;5043403;28;20025;-71
2021/07/14 04:33:38;;;;;;;16.25;9.07;;;20.50;99.90;;;;;;5045457;28;20022;-71
2021/07/14 04:36:04;;;;;;;13.80;8.77;;;20.50;99.90;;;;;;5047867;28;20033;-71
2021/07/14 04:38:30;;;;;;;14.63;9.02;;;20.50;99.90;;;;;;5048859;28;20060;-71
2021/07/14 04:40:55;;;;;;;15.02;8.77;;;20.60;99.90;;;;;;5040953;28;20028;-71
2021/07/14 04:43:21;;;;;;;16.15;8.55;;;20.60;99.90;;;;;;5044811;28;20025;-71
2021/07/14 04:45:46;;;;;;;15.65;9.25;;;20.60;99.90;;;;;;5044343;28;20021;-71
2021/07/14 04:48:12;;;;;;;15.90;9.02;;;20.60;99.90;;;;;;5045262;28;20036;-71
2021/07/14 04:50:37;;;;;;;16.40;9.10;;;20.70;99.90;;;;;;5038030;28;20452;-71
2021/07/14 04:53:03;;;;;;;15.95;8.80;;;20.70;99.90;;;;;;5045861;28;20094;-71
2021/07/14 04:55:28;;;;;;;15.63;9.40;;;20.80;99.90;;;;;;5042766;28;20029;-72
2021/07/14 04:57:54;;;;;;;16.35;9.35;;;20.80;99.90;;;;;;5047051;28;20032;-71
2021/07/14 05:00:20;;;;;;;18.80;9.95;;;20.80;99.90;;;;;;5037219;28;20041;-72
2021/07/14 05:02:46;;;;;;;17.70;9.82;;;20.90;99.90;;;;;;5043705;28;20403;-71
2021/07/14 05:05:14;;;;;;;14.68;8.77;;;20.90;99.90;;;;;;5048344;28;20495;-72
2021/07/14 05:07:39;;;;;;;14.32;9.63;;;21.00;99.90;;;;;;5042369;28;20044;-72
2021/07/14 05:10:06;;;;;;;15.85;10.50;;;21.00;99.90;;;;;;5047636;28;20033;-72
2021/07/14 05:12:31;;;;;;;19.83;11.02;;;21.00;99.90;;;;;;5043433;28;20033;-72
2021/07/14 05:14:57;;;;;;;13.95;9.73;;;21.00;99.90;;;;;;5046241;28;20040;-73
2021/07/14 05:17:22;;;;;;;15.93;9.13;;;21.00;99.90;;;;;;5055183;28;20035;-72
2021/07/14 05:19:48;;;;;;;20.60;11.00;;;21.00;99.90;;;;;;5051783;28;20534;-73
2021/07/14 05:22:13;;;;;;;14.80;9.48;;;21.00;99.90;;;;;;5039764;28;20026;-72
2021/07/14 05:24:39;;;;;;;24.45;10.55;;;21.10;99.90;;;;;;5039234;28;20391;-73
2021/07/14 05:27:05;;;;;;;23.52;10.48;;;21.10;99.90;;;;;;5046379;28;20388;-71
2021/07/14 05:29:30;;;;;;;22.88;11.15;;;21.10;99.90;;;;;;5044571;28;20725;-73
2021/07/14 05:31:56;;;;;;;19.40;10.52;;;21.10;99.90;;;;;;5046039;28;20025;-72
2021/07/14 05:34:21;;;;;;;23.20;11.45;;;21.10;99.90;;;;;;5046205;28;20430;-72
2021/07/14 05:36:47;;;;;;;20.00;10.90;;;21.10;99.90;;;;;;5042506;28;20028;-72
2021/07/14 05:39:14;;;;;;;24.60;10.70;;;21.10;99.90;;;;;;5047426;28;20025;-73
2021/07/14 05:41:39;;;;;;;23.08;11.65;;;21.20;99.90;;;;;;5040505;28;20025;-72
2021/07/14 05:44:37;;;;;;;21.83;12.27;;;21.20;99.90;;;;;;5045810;28;20488;-73
2021/07/14 05:47:03;;;;;;;19.25;11.73;;;21.20;99.90;;;;;;5025288;28;20412;-73
2021/07/14 05:49:29;;;;;;;27.42;12.25;;;21.30;99.90;;;;;;5047737;28;20025;-72
2021/07/14 05:51:54;;;;;;;24.23;11.52;;;21.30;99.90;;;;;;5045244;28;20021;-73
2021/07/14 05:54:20;;;;;;;25.10;12.30;;;21.30;99.90;;;;;;5045584;28;20028;-72
2021/07/14 05:56:46;;;;;;;18.48;11.38;;;21.30;99.90;;;;;;5047523;28;20029;-74
2021/07/14 05:59:11;;;;;;;18.55;10.98;;;21.30;99.90;;;;;;5049760;28;20029;-73
2021/07/14 06:01:37;;;;;;;19.75;10.52;;;21.40;99.90;;;;;;5046089;28;20029;-73
2021/07/14 06:04:03;;;;;;;18.33;10.50;;;21.50;99.90;;;;;;5044207;28;20078;-74
2021/07/14 06:06:29;;;;;;;18.90;10.13;;;21.50;99.90;;;;;;5050859;28;20025;-74
2021/07/14 06:08:55;;;;;;;23.42;11.13;;;21.70;99.90;;;;;;5045531;28;20021;-76
2021/07/14 06:11:20;;;;;;;20.77;11.45;;;21.80;99.90;;;;;;5050464;28;20472;-76
2021/07/14 06:13:46;;;;;;;21.50;11.10;;;21.90;99.90;;;;;;5047304;28;20029;-74
2021/07/14 06:16:11;;;;;;;21.00;12.27;;;21.90;99.90;;;;;;5049804;28;20712;-73
2021/07/14 06:18:37;;;;;;;21.17;10.90;;;22.00;99.90;;;;;;5044606;28;20091;-75
2021/07/14 06:21:03;;;;;;;20.88;11.45;;;22.00;99.90;;;;;;5047343;28;20074;-73
2021/07/14 06:23:29;;;;;;;20.52;11.45;;;22.00;99.90;;;;;;5047618;28;20643;-73
2021/07/14 06:25:55;;;;;;;21.00;11.00;;;22.10;99.90;;;;;;5048637;28;20033;-73
2021/07/14 06:28:21;;;;;;;20.88;11.00;;;22.10;99.90;;;;;;5050886;28;20708;-73
2021/07/14 06:30:47;;;;;;;19.00;11.07;;;22.20;99.90;;;;;;5050581;28;20056;-73
2021/07/14 06:33:13;;;;;;;16.80;10.75;;;22.10;99.90;;;;;;5050077;28;20496;-73
2021/07/14 06:35:38;;;;;;;19.42;11.02;;;22.20;99.90;;;;;;5051021;28;20036;-73
2021/07/14 06:38:04;;;;;;;18.27;11.60;;;22.20;99.90;;;;;;5050268;28;20032;-73
2021/07/14 06:40:32;;;;;;;16.55;11.02;;;22.20;99.90;;;;;;5050604;28;20021;-73
2021/07/14 06:42:59;;;;;;;16.17;11.60;;;22.20;99.90;;;;;;5050219;28;20098;-73
2021/07/14 06:45:27;;;;;;;18.02;11.05;;;22.10;99.90;;;;;;5050460;28;20072;-73
2021/07/14 06:47:53;;;;;;;19.23;11.60;;;22.20;99.90;;;;;;5050539;28;20029;-73
2021/07/14 06:50:18;;;;;;;14.77;9.95;;;22.20;99.90;;;;;;5050264;28;20035;-73
2021/07/14 06:52:44;;;;;;;15.40;11.00;;;22.10;99.90;;;;;;5050266;28;20039;-73
2021/07/14 06:55:11;;;;;;;15.57;11.40;;;22.10;99.90;;;;;;5049998;28;20079;-73
2021/07/14 06:57:37;;;;;;;19.10;11.68;;;22.10;99.90;;;;;;5050030;28;20404;-73
2021/07/14 07:00:05;;;;;;;16.45;11.50;;;22.20;99.90;;;;;;5050266;28;20021;-73
2021/07/14 07:02:31;;;;;;;20.00;11.75;;;22.20;99.90;;;;;;5049913;28;20340;-73
2021/07/14 07:04:56;;;;;;;18.90;12.05;;;22.20;99.90;;;;;;5049392;28;20057;-72
2021/07/14 07:07:21;;;;;;;21.70;11.35;;;22.10;99.90;;;;;;5050212;28;20028;-72
2021/07/14 07:09:47;;;;;;;18.42;11.23;;;22.10;99.90;;;;;;5049898;28;20079;-73
2021/07/14 07:12:12;;;;;;;16.58;11.48;;;22.10;99.90;;;;;;5049786;28;20569;-73
2021/07/14 07:14:40;;;;;;;14.18;10.32;;;22.00;99.90;;;;;;5050018;28;20113;-73
2021/07/14 07:17:06;;;;;;;15.07;10.38;;;22.00;99.90;;;;;;5049472;28;20037;-73
2021/07/14 07:19:32;;;;;;;14.38;10.35;;;22.00;99.90;;;;;;5050163;28;20090;-73
2021/07/14 07:21:58;;;;;;;20.05;11.48;;;22.10;99.90;;;;;;5049672;28;20403;-73
2021/07/14 07:24:23;;;;;;;17.05;11.50;;;22.20;99.90;;;;;;5049200;28;20021;-73
2021/07/14 07:26:48;;;;;;;16.63;11.00;;;22.30;99.90;;;;;;5049833;28;20025;-73
2021/07/14 07:29:15;;;;;;;17.83;10.88;;;22.50;99.90;;;;;;5049527;28;20021;-73
2021/07/14 07:31:40;;;;;;;13.07;9.38;;;22.60;99.90;;;;;;5049880;28;20104;-73
2021/07/14 07:34:06;;;;;;;14.35;10.02;;;22.70;99.90;;;;;;5049444;28;20109;-74
2021/07/14 07:36:32;;;;;;;13.18;9.70;;;22.80;99.90;;;;;;5049209;28;20078;-74
2021/07/14 07:38:57;;;;;;;14.55;10.10;;;22.90;99.90;;;;;;5049412;28;20070;-73
2021/07/14 07:41:25;;;;;;;16.08;10.57;;;23.00;99.90;;;;;;5049332;28;20078;-73
2021/07/14 07:43:51;;;;;;;14.02;9.50;;;23.00;99.90;;;;;;5049043;28;20021;-74
2021/07/14 07:46:17;;;;;;;12.00;9.57;;;23.00;99.90;;;;;;5049222;28;20021;-73
2021/07/14 07:48:43;;;;;;;12.30;9.20;;;23.00;99.90;;;;;;5049484;28;20036;-73
2021/07/14 07:51:08;;;;;;;15.13;9.73;;;23.10;99.90;;;;;;5048867;28;20476;-73
2021/07/14 07:53:35;;;;;;;14.05;10.30;;;23.10;99.90;;;;;;5049263;28;20037;-73
2021/07/14 07:56:01;;;;;;;13.43;9.90;;;23.10;99.90;;;;;;5048838;28;20107;-73
2021/07/14 07:58:27;;;;;;;12.32;9.35;;;23.10;99.90;;;;;;5042431;28;20500;-74
2021/07/14 08:00:54;;;;;;;13.30;9.10;;;23.10;99.90;;;;;;5033553;28;20024;-73
2021/07/14 08:03:19;;;;;;;13.07;10.15;;;23.20;99.90;;;;;;5048571;28;20446;-73
2021/07/14 08:05:45;;;;;;;17.50;9.70;;;23.20;99.90;;;;;;5048715;28;20086;-74
2021/07/14 08:08:11;;;;;;;12.75;9.27;;;23.20;99.90;;;;;;5049106;28;20033;-74
2021/07/14 08:10:37;;;;;;;11.55;9.00;;;23.20;99.90;;;;;;5048679;28;20433;-74
2021/07/14 08:13:03;;;;;;;12.45;9.38;;;23.30;99.90;;;;;;5048844;28;20107;-73
2021/07/14 08:15:29;;;;;;;12.05;8.90;;;23.40;99.90;;;;;;5048283;28;20044;-74
2021/07/14 08:17:55;;;;;;;11.85;8.02;;;23.50;99.90;;;;;;5046910;28;20119;-73
2021/07/14 08:20:20;;;;;;;12.82;8.80;;;23.50;99.90;;;;;;5048445;28;20082;-73
2021/07/14 08:22:46;;;;;;;12.23;9.30;;;23.60;99.90;;;;;;5048608;28;20029;-73
2021/07/14 08:25:12;;;;;;;13.88;8.80;;;23.70;99.90;;;;;;5048385;28;20039;-74
2021/07/14 08:27:39;;;;;;;12.05;9.30;;;23.80;99.90;;;;;;5049026;28;20025;-74
2021/07/14 08:30:07;;;;;;;10.38;8.15;;;23.90;99.90;;;;;;5048694;28;20020;-74
2021/07/14 08:32:33;;;;;;;12.95;8.00;;;23.90;99.90;;;;;;5048496;28;20410;-73
2021/07/14 08:34:59;;;;;;;10.52;8.05;;;23.90;99.90;;;;;;5048690;28;20021;-73
2021/07/14 08:37:25;;;;;;;11.48;7.68;;;24.00;99.90;;;;;;5048582;28;20041;-73
2021/07/14 08:39:52;;;;;;;10.98;8.52;;;24.00;99.90;;;;;;5048522;28;20063;-74
2021/07/14 08:42:20;;;;;;;11.20;8.68;;;24.00;99.90;;;;;;5048332;28;20021;-73
2021/07/14 08:44:46;;;;;;;9.93;8.23;;;23.90;99.90;;;;;;5048704;28;20096;-74
2021/07/14 08:47:12;;;;;;;11.32;8.57;;;23.80;99.90;;;;;;5048205;28;20612;-74
2021/07/14 08:49:41;;;;;;;11.73;8.50;;;23.70;99.90;;;;;;5048634;28;20110;-73
2021/07/14 08:52:07;;;;;;;12.85;8.55;;;23.70;99.90;;;;;;5048228;28;20036;-73
2021/07/14 08:54:36;;;;;;;13.63;8.13;;;23.70;99.90;;;;;;5047963;28;20025;-74
2021/07/14 08:57:02;;;;;;;10.25;7.93;;;23.70;99.90;;;;;;5048166;28;20037;-73
2021/07/14 08:59:28;;;;;;;8.65;7.35;;;23.80;99.90;;;;;;5048472;28;20051;-74
2021/07/14 09:01:53;;;;;;;9.77;7.80;;;23.90;99.90;;;;;;5048232;28;20021;-73
2021/07/14 09:04:19;;;;;;;12.80;7.65;;;24.00;99.90;;;;;;5048178;28;20025;-74
2021/07/14 09:06:44;;;;;;;8.70;6.70;;;24.10;99.90;;;;;;5048613;28;20032;-73
2021/07/14 09:09:10;;;;;;;7.93;7.03;;;24.10;99.90;;;;;;5047888;28;20031;-73
2021/07/14 09:11:58;;;;;;;8.45;7.20;;;24.10;99.90;;;;;;5048443;28;20472;-73
2021/07/14 09:14:35;;;;;;;8.15;7.18;;;24.10;99.90;;;;;;5048268;28;20029;-73
2021/07/14 09:17:22;;;;;;;8.52;7.35;;;24.30;99.90;;;;;;5046300;28;20550;-73
2021/07/14 09:19:52;;;;;;;10.02;7.60;;;24.40;99.90;;;;;;5048319;28;20094;-73
2021/07/14 09:22:23;;;;;;;9.52;7.65;;;24.60;99.90;;;;;;5047617;28;20045;-73
2021/07/14 09:24:48;;;;;;;11.57;7.10;;;24.60;99.90;;;;;;5048058;28;20017;-73
2021/07/14 09:27:27;;;;;;;11.38;8.63;;;24.70;99.90;;;;;;5050095;28;20032;-73
2021/07/14 09:30:16;;;;;;;8.70;7.85;;;24.80;99.90;;;;;;5052219;28;20142;-73
2021/07/14 09:32:49;;;;;;;10.65;8.48;;;24.90;99.90;;;;;;5051964;28;20040;-73
2021/07/14 09:35:38;;;;;;;9.18;8.20;;;25.00;99.90;;;;;;5051524;28;20159;-73
2021/07/14 09:38:10;;;;;;;10.32;9.23;;;25.00;99.90;;;;;;5050157;28;20777;-74
2021/07/14 09:40:37;;;;;;;10.43;9.20;;;24.90;99.90;;;;;;5051118;28;20029;-73
2021/07/14 09:43:18;;;;;;;10.68;8.93;;;24.90;99.90;;;;;;5052198;28;20074;-73
2021/07/14 09:45:53;;;;;;;13.15;8.50;;;24.90;99.90;;;;;;5051878;28;20025;-74
2021/07/14 09:48:29;;;;;;;10.88;8.38;;;24.90;99.90;;;;;;5051368;28;20033;-74
2021/07/14 09:51:09;;;;;;;14.75;8.18;;;24.90;99.90;;;;;;5051473;28;20028;-73
2021/07/14 09:53:36;;;;;;;8.50;7.38;;;25.00;99.90;;;;;;5051454;28;20111;-73
2021/07/14 09:56:27;;;;;;;7.88;6.30;;;25.10;99.90;;;;;;5051333;28;20036;-74
2021/07/14 09:59:03;;;;;;;13.93;8.45;;;25.10;99.90;;;;;;5051148;28;20057;-74
2021/07/14 10:01:35;;;;;;;11.70;8.95;;;25.10;99.90;;;;;;5051039;28;20025;-74
2021/07/14 10:04:01;;;;;;;9.30;8.23;;;25.10;99.90;;;;;;5051450;28;20110;-74
2021/07/14 10:06:27;;;;;;;12.95;9.07;;;25.10;99.90;;;;;;5051253;28;20029;-73
2021/07/14 10:08:52;;;;;;;10.50;8.75;;;25.10;99.90;;;;;;5050876;28;20032;-73
2021/07/14 10:11:21;;;;;;;12.50;8.57;;;25.20;99.90;;;;;;5051176;28;20048;-74
2021/07/14 10:14:04;;;;;;;9.48;8.27;;;25.30;99.80;;;;;;5051457;28;20025;-73
2021/07/14 10:16:32;;;;;;;9.60;7.60;;;25.40;99.00;;;;;;5050566;28;20053;-73
2021/07/14 10:18:59;;;;;;;8.27;7.20;;;25.40;99.50;;;;;;5051151;28;20048;-73
2021/07/14 10:21:25;;;;;;;9.82;7.72;;;25.40;98.60;;;;;;5050901;28;20025;-73
2021/07/14 10:23:51;;;;;;;15.02;8.18;;;25.40;99.90;;;;;;5050876;28;20494;-73
2021/07/14 10:26:17;;;;;;;9.60;7.75;;;25.40;99.80;;;;;;5050995;28;20113;-73
2021/07/14 10:28:44;;;;;;;8.35;6.82;;;25.40;98.60;;;;;;5050485;28;20029;-73
2021/07/14 10:31:09;;;;;;;13.32;7.57;;;25.30;97.90;;;;;;5050334;28;20116;-73
2021/07/14 10:33:35;;;;;;;9.68;7.43;;;25.20;98.50;;;;;;5051154;28;20453;-73
2021/07/14 10:36:04;;;;;;;8.73;7.20;;;25.20;99.90;;;;;;5050663;28;20035;-73
2021/07/14 10:38:30;;;;;;;8.82;7.80;;;25.10;99.80;;;;;;5049421;28;20037;-74
2021/07/14 10:40:56;;;;;;;10.57;7.60;;;25.10;99.90;;;;;;5050933;28;20100;-74
2021/07/14 10:43:25;;;;;;;12.70;7.13;;;25.20;99.90;;;;;;5050579;28;20430;-73
2021/07/14 10:45:51;;;;;;;8.82;6.75;;;25.30;99.60;;;;;;5050454;28;20032;-73
2021/07/14 10:48:19;;;;;;;8.88;6.88;;;25.40;99.70;;;;;;5050299;28;20029;-73
2021/07/14 10:50:47;;;;;;;7.38;6.25;;;25.50;97.70;;;;;;5050771;28;20025;-73
2021/07/14 10:53:13;;;;;;;7.90;6.68;;;25.70;97.70;;;;;;5050191;28;20037;-73
2021/07/14 10:55:41;;;;;;;9.70;7.40;;;25.90;99.90;;;;;;5050155;28;20036;-73
2021/07/14 10:58:09;;;;;;;8.07;7.03;;;25.90;98.10;;;;;;5050425;28;20024;-73
2021/07/14 11:00:40;;;;;;;8.05;6.53;;;26.00;97.20;;;;;;5049695;28;20045;-73
2021/07/14 11:03:06;;;;;;;6.65;5.95;;;25.90;96.30;;;;;;5049971;28;20029;-73
2021/07/14 11:05:45;;;;;;;7.15;5.20;;;25.90;95.60;;;;;;5050023;28;20052;-73
2021/07/14 11:08:31;;;;;;;10.30;5.80;;;25.80;95.00;;;;;;5049977;28;20025;-73
2021/07/14 11:10:59;;;;;;;10.25;7.40;;;25.70;96.30;;;;;;5031929;28;20025;-73
2021/07/14 11:13:28;;;;;;;7.63;6.57;;;25.70;96.60;;;;;;5044914;28;20040;-73
2021/07/14 11:15:55;;;;;;;9.77;6.95;;;25.60;96.60;;;;;;5049799;28;20068;-73
2021/07/14 11:18:29;;;;;;;6.13;5.32;;;25.60;96.90;;;;;;5049769;28;20112;-72
2021/07/14 11:20:58;;;;;;;10.50;6.88;;;25.60;94.70;;;;;;5050094;28;20017;-72
2021/07/14 11:23:29;;;;;;;11.30;7.07;;;25.60;96.60;;;;;;5049573;28;20060;-72
2021/07/14 11:25:56;;;;;;;7.90;7.03;;;25.50;97.20;;;;;;5050103;28;20021;-73
2021/07/14 11:28:23;;;;;;;8.82;5.80;;;25.50;99.70;;;;;;5049316;28;20659;-73
2021/07/14 11:30:51;;;;;;;9.57;6.38;;;25.50;97.10;;;;;;5049828;28;20037;-72
2021/07/14 11:33:27;;;;;;;8.73;5.78;;;25.40;97.70;;;;;;5048874;28;20101;-72
2021/07/14 11:35:57;;;;;;;10.65;5.80;;;25.50;98.40;;;;;;5049733;28;20046;-73
2021/07/14 11:38:26;;;;;;;5.85;5.07;;;25.60;98.60;;;;;;5049372;28;20040;-74
2021/07/14 11:40:54;;;;;;;6.13;5.38;;;25.70;97.50;;;;;;5049260;28;20037;-75
2021/07/14 11:43:43;;;;;;;7.75;5.53;;;26.00;96.40;;;;;;5048910;28;20104;-74
2021/07/14 11:46:14;;;;;;;6.97;4.22;;;26.20;96.30;;;;;;5049191;28;20029;-74
2021/07/14 11:48:47;;;;;;;6.32;4.47;;;26.40;92.90;;;;;;5049301;28;20480;-73
2021/07/14 11:51:15;;;;;;;7.22;4.78;;;26.40;92.10;;;;;;5049287;28;20690;-74
2021/07/14 11:53:43;;;;;;;8.73;5.32;;;26.50;92.70;;;;;;5049661;28;20024;-74
2021/07/14 11:56:17;;;;;;;6.00;5.18;;;26.80;96.30;;;;;;5049021;28;20187;-74
2021/07/14 11:58:42;;;;;;;4.85;4.22;;;27.00;93.30;;;;;;5048641;28;20052;-74
2021/07/14 12:01:31;;;;;;;5.22;4.40;;;27.00;91.20;;;;;;5048367;28;20048;-73
2021/07/14 12:03:59;;;;;;;7.20;4.82;;;26.80;91.10;;;;;;5042447;28;20033;-73
2021/07/14 12:06:37;;;;;;;4.85;4.35;;;26.60;92.30;;;;;;5048726;28;20482;-74
2021/07/14 12:09:25;;;;;;;8.60;5.15;;;26.80;92.80;;;;;;5048610;28;20129;-74
2021/07/14 12:11:58;;;;;;;4.70;4.25;;;26.90;91.30;;;;;;5048714;28;20036;-74
2021/07/14 12:14:29;;;;;;;5.30;4.60;;;26.90;92.30;;;;;;5048638;28;20128;-74
2021/07/14 12:17:16;;;;;;;5.18;4.63;;;26.70;90.80;;;;;;5043772;28;20049;-74
2021/07/14 12:19:57;;;;;;;6.53;5.00;;;26.60;92.20;;;;;;5048511;28;20589;-73
2021/07/14 12:22:25;;;;;;;5.57;4.85;;;26.60;92.90;;;;;;5047853;28;20028;-73
2021/07/14 12:24:53;;;;;;;8.05;4.88;;;26.70;92.10;;;;;;5048759;28;20025;-74
2021/07/14 12:27:31;;;;;;;8.63;4.45;;;27.20;91.30;;;;;;5048731;28;20033;-74
2021/07/14 12:30:02;;;;;;;4.82;4.30;;;27.70;90.60;;;;;;5047530;28;20487;-75
2021/07/14 12:32:35;;;;;;;4.20;3.80;;;28.50;83.60;;;;;;5048435;28;20106;-74
2021/07/14 12:35:05;;;;;;;6.80;4.05;;;30.10;78.40;;;;;;5048723;28;20132;-74
2021/07/14 12:37:34;;;;;;;6.53;3.72;;;31.10;71.70;;;;;;5048254;28;20127;-72
2021/07/14 12:39:59;;;;;;;16.13;4.32;;;31.10;66.80;;;;;;5045885;28;20029;-73
2021/07/14 12:42:25;;;;;;;4.68;4.25;;;30.80;69.10;;;;;;5048462;28;20036;-73
2021/07/14 12:44:51;;;;;;;5.53;4.68;;;30.70;71.70;;;;;;5048703;28;20057;-72
2021/07/14 12:47:19;;;;;;;6.63;4.68;;;30.00;70.60;;;;;;5048317;28;20446;-73
2021/07/14 12:49:46;;;;;;;4.85;4.25;;;29.40;71.40;;;;;;5048423;28;20025;-73
2021/07/14 12:52:17;;;;;;;6.13;4.10;;;28.90;75.10;;;;;;5042855;28;20100;-74